createdAt,value
2019-01-13T00:00:59.924Z,39.77
2019-01-13T00:03:28.284Z,41.13
2019-01-13T00:05:56.930Z,38.63
2019-01-13T00:08:25.794Z,40.10
2019-01-13T00:10:54.470Z,41.10
2019-01-13T00:13:23.182Z,39.83
2019-01-13T00:15:52.139Z,40.10
2019-01-13T00:18:20.447Z,38.93
2019-01-13T00:20:49.194Z,37.47
2019-01-13T00:23:17.919Z,39.70
2019-01-13T00:25:46.521Z,37.87
2019-01-13T00:28:15.138Z,39.17
2019-01-13T00:30:43.828Z,37.97
2019-01-13T00:33:12.095Z,37.40
2019-01-13T00:35:40.811Z,38.83
2019-01-13T00:38:09.116Z,37.97
2019-01-13T00:40:37.562Z,36.73
2019-01-13T00:43:06.078Z,35.17
2019-01-13T00:45:34.799Z,33.67
2019-01-13T00:48:03.719Z,37.17
2019-01-13T00:50:32.475Z,36.53
2019-01-13T00:53:01.235Z,36.47
2019-01-13T00:55:29.902Z,35.53
2019-01-13T00:57:58.679Z,35.73
2019-01-13T01:00:27.496Z,35.00
2019-01-13T01:02:56.375Z,33.97
2019-01-13T01:05:25.351Z,34.27
2019-01-13T01:07:54.055Z,36.00
2019-01-13T01:10:22.478Z,38.33
2019-01-13T01:12:52.294Z,36.87
2019-01-13T01:15:21.128Z,36.37
2019-01-13T01:17:49.908Z,34.33
2019-01-13T01:20:18.674Z,35.37
2019-01-13T01:22:47.351Z,34.53
2019-01-13T01:25:16.611Z,34.90
2019-01-13T01:27:45.246Z,34.77
2019-01-13T01:30:16.364Z,33.93
2019-01-13T01:32:45.302Z,36.20
2019-01-13T01:35:14.447Z,35.83
2019-01-13T01:37:42.828Z,33.33
2019-01-13T01:40:19.427Z,34.87
2019-01-13T01:42:47.832Z,35.17
2019-01-13T01:45:18.124Z,33.50
2019-01-13T01:47:46.808Z,33.23
2019-01-13T01:50:15.496Z,31.70
2019-01-13T01:52:44.303Z,32.27
2019-01-13T01:55:15.051Z,31.17
2019-01-13T01:57:43.468Z,31.73
2019-01-13T02:00:13.213Z,30.83
2019-01-13T02:02:42.081Z,32.67
2019-01-13T02:05:10.770Z,31.87
2019-01-13T02:07:39.461Z,30.53
2019-01-13T02:10:09.430Z,29.97
2019-01-13T02:12:38.095Z,32.98
2019-01-13T02:15:08.807Z,28.20
2019-01-13T02:17:37.511Z,32.33
2019-01-13T02:20:08.361Z,30.33
2019-01-13T02:22:37.072Z,29.03
2019-01-13T02:25:07.251Z,30.30
2019-01-13T02:27:35.735Z,30.83
2019-01-13T02:30:06.397Z,29.87
2019-01-13T02:32:35.265Z,30.77
2019-01-13T02:35:04.799Z,30.13
2019-01-13T02:37:33.619Z,32.10
2019-01-13T02:40:02.050Z,31.50
2019-01-13T02:42:30.681Z,30.67
2019-01-13T02:44:59.218Z,29.77
2019-01-13T02:47:27.530Z,30.63
2019-01-13T02:49:56.084Z,29.43
2019-01-13T02:52:25.886Z,36.53
2019-01-13T02:54:54.614Z,40.13
2019-01-13T02:57:24.463Z,37.70
2019-01-13T02:59:52.749Z,35.43
2019-01-13T03:02:21.523Z,33.97
2019-01-13T03:04:50.206Z,31.90
2019-01-13T03:07:18.820Z,32.53
2019-01-13T03:09:47.130Z,32.87
2019-01-13T03:12:16.902Z,31.77
2019-01-13T03:14:45.612Z,31.43
2019-01-13T03:17:14.382Z,30.13
2019-01-13T03:19:43.010Z,30.23
2019-01-13T03:22:11.679Z,29.77
2019-01-13T03:24:40.204Z,30.87
2019-01-13T03:27:08.769Z,30.23
2019-01-13T03:29:37.192Z,29.53
2019-01-13T03:32:05.933Z,29.07
2019-01-13T03:34:34.526Z,30.33
2019-01-13T03:37:03.168Z,30.40
2019-01-13T03:39:31.943Z,30.73
2019-01-13T03:42:00.322Z,31.33
2019-01-13T03:44:29.147Z,31.23
2019-01-13T03:46:57.628Z,30.17
2019-01-13T03:49:26.288Z,32.33
2019-01-13T03:51:54.965Z,31.63
2019-01-13T03:54:23.644Z,32.57
2019-01-13T03:56:52.071Z,30.83
2019-01-13T03:59:20.405Z,30.80
2019-01-13T04:01:48.822Z,31.63
2019-01-13T04:04:17.532Z,30.40
2019-01-13T04:06:45.947Z,31.20
2019-01-13T04:09:14.593Z,31.47
2019-01-13T04:11:43.397Z,31.97
2019-01-13T04:14:11.829Z,32.83
2019-01-13T04:16:40.779Z,31.67
2019-01-13T04:19:09.071Z,31.87
2019-01-13T04:21:37.412Z,32.33
2019-01-13T04:24:06.156Z,32.20
2019-01-13T04:26:34.852Z,32.33
2019-01-13T04:29:03.525Z,32.30
2019-01-13T04:31:32.210Z,32.30
2019-01-13T04:34:00.995Z,32.63
2019-01-13T04:36:31.803Z,31.37
2019-01-13T04:39:00.248Z,31.90
2019-01-13T04:41:28.595Z,30.10
2019-01-13T04:43:57.245Z,30.90
2019-01-13T04:46:25.941Z,30.97
2019-01-13T04:48:54.687Z,28.90
2019-01-13T04:51:23.210Z,30.30
2019-01-13T04:53:51.579Z,30.77
2019-01-13T04:56:20.064Z,31.43
2019-01-13T04:58:48.697Z,29.63
2019-01-13T05:01:17.147Z,29.43
2019-01-13T05:03:45.344Z,30.20
2019-01-13T05:06:14.014Z,29.57
2019-01-13T05:08:42.405Z,31.73
2019-01-13T05:11:11.117Z,30.67
2019-01-13T05:13:39.451Z,30.80
2019-01-13T05:16:07.796Z,31.37
2019-01-13T05:18:36.523Z,31.37
2019-01-13T05:21:05.241Z,31.93
2019-01-13T05:23:33.837Z,32.13
2019-01-13T05:26:02.264Z,33.30
2019-01-13T05:28:30.818Z,34.13
2019-01-13T05:30:59.460Z,32.07
2019-01-13T05:33:27.774Z,33.30
2019-01-13T05:35:56.375Z,32.90
2019-01-13T05:38:24.956Z,33.47
2019-01-13T05:40:53.501Z,31.97
2019-01-13T05:43:22.097Z,32.53
2019-01-13T05:45:50.797Z,32.77
2019-01-13T05:48:19.236Z,31.93
2019-01-13T05:50:49.470Z,32.37
2019-01-13T05:53:17.776Z,30.67
2019-01-13T05:55:46.355Z,30.27
2019-01-13T05:58:15.052Z,31.83
2019-01-13T06:00:43.811Z,31.50
2019-01-13T06:03:12.843Z,31.73
2019-01-13T06:05:41.438Z,31.40
2019-01-13T06:08:10.209Z,31.27
2019-01-13T06:10:38.974Z,30.23
2019-01-13T06:13:07.443Z,30.90
2019-01-13T06:15:36.098Z,33.37
2019-01-13T06:18:04.848Z,34.07
2019-01-13T06:20:33.431Z,33.00
2019-01-13T06:23:02.231Z,33.03
2019-01-13T06:25:30.928Z,31.50
2019-01-13T06:27:59.562Z,32.90
2019-01-13T06:30:28.293Z,33.00
2019-01-13T06:32:57.003Z,31.00
2019-01-13T06:35:25.829Z,32.70
2019-01-13T06:37:54.654Z,33.40
2019-01-13T06:40:23.301Z,31.90
2019-01-13T06:42:52.123Z,32.80
2019-01-13T06:45:22.627Z,32.77
2019-01-13T06:47:51.421Z,33.20
2019-01-13T06:50:20.252Z,32.90
2019-01-13T06:52:48.967Z,34.33
2019-01-13T06:55:17.342Z,34.20
2019-01-13T06:57:45.700Z,33.07
2019-01-13T07:00:15.646Z,32.13
2019-01-13T07:02:44.361Z,33.63
2019-01-13T07:05:12.685Z,34.07
2019-01-13T07:07:41.432Z,32.70
2019-01-13T07:10:11.137Z,35.80
2019-01-13T07:12:39.970Z,33.90
2019-01-13T07:15:10.305Z,34.57
2019-01-13T07:17:38.781Z,38.73
2019-01-13T07:20:09.727Z,52.83
2019-01-13T07:22:38.352Z,61.90
2019-01-13T07:25:07.096Z,59.37
2019-01-13T07:27:35.827Z,54.67
2019-01-13T07:30:09.356Z,51.27
2019-01-13T07:32:37.619Z,52.63
2019-01-13T07:35:06.361Z,44.97
2019-01-13T07:37:34.989Z,38.23
2019-01-13T07:40:05.997Z,36.57
2019-01-13T07:42:34.441Z,35.37
2019-01-13T07:45:03.299Z,34.20
2019-01-13T07:47:31.798Z,35.87
2019-01-13T07:50:00.411Z,36.20
2019-01-13T07:52:29.036Z,38.50
2019-01-13T07:54:57.745Z,35.17
2019-01-13T07:57:26.412Z,35.27
2019-01-13T07:59:55.163Z,37.67
2019-01-13T08:02:23.900Z,37.87
2019-01-13T08:04:52.684Z,35.17
2019-01-13T08:07:21.369Z,41.30
2019-01-13T08:09:49.818Z,42.87
2019-01-13T08:12:18.246Z,39.67
2019-01-13T08:14:47.356Z,35.70
2019-01-13T08:17:15.757Z,34.23
2019-01-13T08:19:44.374Z,33.27
2019-01-13T08:22:12.723Z,35.10
2019-01-13T08:24:41.563Z,33.90
2019-01-13T08:27:10.042Z,33.13
2019-01-13T08:29:38.427Z,31.80
2019-01-13T08:32:07.172Z,31.80
2019-01-13T08:34:35.991Z,31.47
2019-01-13T08:37:04.908Z,32.07
2019-01-13T08:39:33.664Z,31.33
2019-01-13T08:42:02.197Z,30.80
2019-01-13T08:44:30.631Z,31.10
2019-01-13T08:46:59.149Z,29.40
2019-01-13T08:49:27.422Z,28.83
2019-01-13T08:51:56.145Z,28.60
2019-01-13T08:54:25.832Z,28.83
2019-01-13T08:56:54.537Z,29.90
2019-01-13T08:59:22.951Z,28.73
2019-01-13T09:01:51.481Z,27.27
2019-01-13T09:04:20.017Z,29.40
2019-01-13T09:06:48.567Z,29.90
2019-01-13T09:09:17.030Z,28.20
2019-01-13T09:11:45.552Z,28.57
2019-01-13T09:14:14.336Z,27.20
2019-01-13T09:16:42.935Z,28.77
2019-01-13T09:19:11.733Z,29.60
2019-01-13T09:21:40.383Z,29.37
2019-01-13T09:24:09.145Z,30.80
2019-01-13T09:26:38.860Z,30.07
2019-01-13T09:29:07.829Z,33.87
2019-01-13T09:31:36.488Z,31.60
2019-01-13T09:34:05.221Z,30.77
2019-01-13T09:36:34.040Z,32.43
2019-01-13T09:39:02.648Z,30.43
2019-01-13T09:41:32.684Z,32.80
2019-01-13T09:44:01.234Z,34.73
2019-01-13T09:46:29.882Z,37.93
2019-01-13T09:48:58.541Z,37.87
2019-01-13T09:51:27.299Z,38.37
2019-01-13T09:53:55.879Z,39.67
2019-01-13T09:56:24.623Z,44.20
2019-01-13T09:58:53.437Z,42.65
2019-01-13T10:01:22.103Z,39.37
2019-01-13T10:03:50.937Z,40.73
2019-01-13T10:06:19.607Z,45.67
2019-01-13T10:08:48.212Z,43.40
2019-01-13T10:11:16.861Z,39.90
2019-01-13T10:13:45.407Z,40.63
2019-01-13T10:16:14.071Z,40.43
2019-01-13T10:18:42.351Z,40.03
2019-01-13T10:21:11.166Z,39.67
2019-01-13T10:23:39.952Z,41.42
2019-01-13T10:26:08.676Z,39.40
2019-01-13T10:28:37.494Z,40.30
2019-01-13T10:31:07.295Z,39.43
2019-01-13T10:33:35.992Z,39.77
2019-01-13T10:36:04.861Z,38.20
2019-01-13T10:38:33.685Z,39.50
2019-01-13T10:41:02.535Z,39.88
2019-01-13T10:43:31.207Z,38.03
2019-01-13T10:45:59.752Z,36.87
2019-01-13T10:48:28.543Z,38.50
2019-01-13T10:50:57.306Z,38.53
2019-01-13T10:53:25.943Z,37.43
2019-01-13T10:55:55.559Z,40.03
2019-01-13T10:58:24.388Z,40.67
2019-01-13T11:00:53.236Z,38.07
2019-01-13T11:03:21.767Z,39.33
2019-01-13T11:05:50.317Z,36.87
2019-01-13T11:08:18.892Z,36.80
2019-01-13T11:10:47.595Z,38.47
2019-01-13T11:13:16.232Z,40.63
2019-01-13T11:15:44.928Z,39.90
2019-01-13T11:18:13.650Z,39.17
2019-01-13T11:20:42.318Z,41.10
2019-01-13T11:23:10.956Z,40.55
2019-01-13T11:25:39.635Z,38.70
2019-01-13T11:28:08.300Z,39.07
2019-01-13T11:30:37.090Z,37.83
2019-01-13T11:33:09.612Z,37.17
2019-01-13T11:35:36.317Z,36.87
2019-01-13T11:38:05.226Z,38.83
2019-01-13T11:40:33.922Z,36.90
2019-01-13T11:43:02.508Z,34.93
2019-01-13T11:45:31.244Z,35.53
2019-01-13T11:47:59.955Z,34.60
2019-01-13T11:50:28.638Z,36.67
2019-01-13T11:52:57.316Z,35.37
2019-01-13T11:55:25.959Z,37.13
2019-01-13T11:57:54.708Z,36.93
2019-01-13T12:00:44.962Z,38.53
2019-01-13T12:03:16.961Z,39.08
2019-01-13T12:05:44.254Z,35.40
2019-01-13T12:08:12.927Z,38.13
2019-01-13T12:10:41.632Z,39.13
2019-01-13T12:13:10.292Z,39.17
2019-01-13T12:15:39.088Z,38.57
2019-01-13T12:18:07.850Z,39.23
2019-01-13T12:20:36.526Z,40.27
2019-01-13T12:23:05.442Z,38.83
2019-01-13T12:25:34.103Z,37.77
2019-01-13T12:28:02.734Z,39.00
2019-01-13T12:30:32.215Z,38.87
2019-01-13T12:33:01.295Z,41.00
2019-01-13T12:35:30.234Z,38.30
2019-01-13T12:37:58.756Z,41.40
2019-01-13T12:40:28.856Z,39.80
2019-01-13T12:42:57.727Z,39.70
2019-01-13T12:45:26.463Z,40.23
2019-01-13T12:47:55.618Z,39.20
2019-01-13T12:50:26.444Z,38.20
2019-01-13T12:52:55.340Z,40.10
2019-01-13T12:55:24.152Z,42.70
2019-01-13T12:57:52.849Z,38.00
2019-01-13T13:00:21.859Z,37.30
2019-01-13T13:02:50.579Z,40.63
2019-01-13T13:05:19.122Z,37.37
2019-01-13T13:07:47.987Z,38.67
2019-01-13T13:10:22.821Z,48.60
2019-01-13T13:12:52.494Z,43.63
2019-01-13T13:15:20.996Z,38.53
2019-01-13T13:17:49.779Z,39.03
2019-01-13T13:20:18.471Z,40.87
2019-01-13T13:22:47.312Z,38.27
2019-01-13T13:25:16.074Z,39.97
2019-01-13T13:27:44.686Z,39.47
2019-01-13T13:30:16.545Z,38.60
2019-01-13T13:32:45.163Z,39.47
2019-01-13T13:35:13.932Z,40.70
2019-01-13T13:37:42.634Z,40.53
2019-01-13T13:40:12.942Z,43.63
2019-01-13T13:42:41.580Z,39.33
2019-01-13T13:45:10.421Z,40.67
2019-01-13T13:47:39.137Z,38.07
2019-01-13T13:50:10.593Z,40.30
2019-01-13T13:52:39.442Z,42.33
2019-01-13T13:55:09.145Z,38.77
2019-01-13T13:57:37.851Z,40.50
2019-01-13T14:00:10.499Z,36.80
2019-01-13T14:02:39.273Z,38.10
2019-01-13T14:05:08.971Z,38.70
2019-01-13T14:07:37.679Z,38.63
2019-01-13T14:10:09.827Z,39.23
2019-01-13T14:12:38.756Z,38.90
2019-01-13T14:15:07.766Z,39.90
2019-01-13T14:17:36.466Z,37.43
2019-01-13T14:20:07.945Z,39.13
2019-01-13T14:22:36.702Z,39.17
2019-01-13T14:25:05.819Z,38.13
2019-01-13T14:27:35.476Z,38.67
2019-01-13T14:30:06.757Z,37.47
2019-01-13T14:32:35.601Z,38.93
2019-01-13T14:35:05.320Z,38.27
2019-01-13T14:37:33.952Z,38.27
2019-01-13T14:40:02.689Z,39.70
2019-01-13T14:42:31.391Z,39.93
2019-01-13T14:45:00.272Z,40.10
2019-01-13T14:47:29.159Z,39.83
2019-01-13T14:49:57.693Z,38.13
2019-01-13T14:52:26.316Z,38.73
2019-01-13T14:54:54.952Z,38.77
2019-01-13T14:57:23.804Z,39.33
2019-01-13T14:59:52.580Z,39.87
2019-01-13T15:02:21.132Z,38.40
2019-01-13T15:04:49.770Z,40.73
2019-01-13T15:07:18.598Z,43.37
2019-01-13T15:09:47.362Z,41.87
2019-01-13T15:12:16.035Z,42.80
2019-01-13T15:14:44.766Z,43.53
2019-01-13T15:17:13.574Z,41.00
2019-01-13T15:22:18.553Z,53.37
2019-01-13T15:24:47.093Z,47.90
2019-01-13T15:27:15.647Z,44.73
2019-01-13T15:29:44.288Z,44.87
2019-01-13T15:32:13.001Z,43.67
2019-01-13T15:34:41.751Z,48.27
2019-01-13T15:37:10.516Z,49.13
2019-01-13T15:39:38.959Z,45.67
2019-01-13T15:42:07.593Z,43.93
2019-01-13T15:44:36.315Z,44.67
2019-01-13T15:47:04.972Z,44.67
2019-01-13T15:49:33.691Z,46.60
2019-01-13T15:52:02.351Z,48.20
2019-01-13T15:54:31.015Z,48.97
2019-01-13T15:56:59.747Z,48.60
2019-01-13T15:59:28.465Z,48.10
2019-01-13T16:01:57.113Z,49.83
2019-01-13T16:04:25.516Z,49.77
2019-01-13T16:06:54.187Z,50.67
2019-01-13T16:09:22.885Z,48.27
2019-01-13T16:11:51.722Z,64.50
2019-01-13T16:14:20.272Z,53.70
2019-01-13T16:16:48.717Z,62.53
2019-01-13T16:19:17.202Z,61.63
2019-01-13T16:21:45.891Z,71.97
2019-01-13T16:24:14.808Z,63.77
2019-01-13T16:26:43.603Z,61.27
2019-01-13T16:29:12.022Z,58.97
2019-01-13T16:31:40.688Z,54.33
2019-01-13T16:34:09.400Z,63.53
2019-01-13T16:36:38.204Z,55.47
2019-01-13T16:39:08.060Z,62.47
2019-01-13T16:41:36.499Z,87.00
2019-01-13T16:44:05.148Z,63.63
2019-01-13T16:46:33.816Z,60.73
2019-01-13T16:49:02.536Z,64.70
2019-01-13T16:51:31.108Z,59.90
2019-01-13T16:53:59.788Z,61.47
2019-01-13T16:56:28.389Z,69.80
2019-01-13T16:58:57.334Z,69.13
2019-01-13T17:01:26.120Z,72.77
2019-01-13T17:03:54.778Z,75.30
2019-01-13T17:06:23.417Z,72.43
2019-01-13T17:08:51.886Z,74.53
2019-01-13T17:11:20.553Z,76.90
2019-01-13T17:13:48.995Z,78.93
2019-01-13T17:16:18.705Z,76.37
2019-01-13T17:18:47.536Z,76.93
2019-01-13T17:21:16.392Z,81.40
2019-01-13T17:23:44.860Z,84.70
2019-01-13T17:26:13.432Z,82.80
2019-01-13T17:28:42.156Z,76.73
2019-01-13T17:31:10.754Z,72.67
2019-01-13T17:33:39.378Z,66.83
2019-01-13T17:36:08.042Z,65.70
2019-01-13T17:38:36.693Z,70.93
2019-01-13T17:41:05.442Z,93.40
2019-01-13T17:43:34.067Z,87.03
2019-01-13T17:46:02.448Z,87.47
2019-01-13T17:48:31.033Z,79.47
2019-01-13T17:50:59.556Z,77.77
2019-01-13T17:53:28.284Z,81.47
2019-01-13T17:55:57.009Z,75.67
2019-01-13T17:58:26.919Z,76.50
2019-01-13T18:01:31.820Z,77.50
2019-01-13T18:04:00.863Z,72.70
2019-01-13T18:06:29.496Z,72.30
2019-01-13T18:08:58.028Z,77.27
2019-01-13T18:11:26.814Z,87.53
2019-01-13T18:13:55.248Z,81.70
2019-01-13T18:16:23.920Z,83.27
2019-01-13T18:18:52.853Z,90.90
2019-01-13T18:21:21.662Z,98.90
2019-01-13T18:23:50.319Z,95.13
2019-01-13T18:26:18.960Z,98.90
2019-01-13T18:28:47.791Z,91.60
2019-01-13T18:31:16.477Z,96.87
2019-01-13T18:33:45.203Z,86.47
2019-01-13T18:36:14.031Z,88.87
2019-01-13T18:38:42.381Z,82.63
2019-01-13T18:41:10.932Z,87.03
2019-01-13T18:43:39.509Z,84.63
2019-01-13T18:46:08.340Z,82.27
2019-01-13T18:48:37.096Z,81.83
2019-01-13T18:51:05.832Z,82.73
2019-01-13T18:53:34.594Z,82.67
2019-01-13T18:56:03.221Z,82.97
2019-01-13T18:58:31.816Z,81.23
2019-01-13T19:01:00.656Z,90.50
2019-01-13T19:03:29.295Z,80.37
2019-01-13T19:05:58.064Z,93.43
2019-01-13T19:08:26.724Z,88.63
2019-01-13T19:11:12.290Z,84.73
2019-01-13T19:14:04.631Z,81.40
2019-01-13T19:16:39.460Z,83.60
2019-01-13T19:19:08.006Z,86.07
2019-01-13T19:21:37.756Z,88.60
2019-01-13T19:24:06.445Z,86.43
2019-01-13T19:26:35.081Z,86.57
2019-01-13T19:29:03.781Z,88.85
2019-01-13T19:31:32.564Z,79.37
2019-01-13T19:34:01.045Z,81.83
2019-01-13T19:36:29.711Z,76.07
2019-01-13T19:38:59.465Z,80.53
2019-01-13T19:41:28.140Z,88.90
2019-01-13T19:43:57.974Z,87.57
2019-01-13T19:46:26.700Z,86.57
2019-01-13T19:48:55.707Z,81.27
2019-01-13T19:51:24.245Z,82.77
2019-01-13T19:53:52.823Z,92.00
2019-01-13T19:56:21.537Z,91.87
2019-01-13T19:58:50.321Z,83.13
2019-01-13T20:01:19.063Z,80.03
2019-01-13T20:03:47.856Z,85.20
2019-01-13T20:06:16.567Z,83.60
2019-01-13T20:08:45.106Z,97.33
2019-01-13T20:11:13.936Z,86.37
2019-01-13T20:13:42.503Z,90.33
2019-01-13T20:16:11.288Z,86.57
2019-01-13T20:18:39.995Z,84.97
2019-01-13T20:21:08.821Z,85.27
2019-01-13T20:23:37.661Z,87.77
2019-01-13T20:26:06.551Z,92.97
2019-01-13T20:28:35.388Z,88.93
2019-01-13T20:31:04.143Z,89.83
2019-01-13T20:33:33.443Z,87.63
2019-01-13T20:36:02.314Z,85.60
2019-01-13T20:38:30.747Z,91.50
2019-01-13T20:40:59.513Z,95.10
2019-01-13T20:43:27.894Z,90.47
2019-01-13T20:45:56.383Z,91.93
2019-01-13T20:48:25.172Z,93.03
2019-01-13T20:50:53.824Z,86.43
2019-01-13T20:53:22.621Z,91.50
2019-01-13T20:55:51.253Z,91.23
2019-01-13T20:58:20.010Z,94.10
2019-01-13T21:00:48.694Z,102.50
2019-01-13T21:03:17.515Z,93.93
2019-01-13T21:05:46.201Z,90.70
2019-01-13T21:08:15.534Z,92.03
2019-01-13T21:10:44.205Z,88.63
2019-01-13T21:13:12.976Z,89.73
2019-01-13T21:15:41.597Z,101.67
2019-01-13T21:18:10.415Z,103.17
2019-01-13T21:20:39.042Z,96.43
2019-01-13T21:23:07.796Z,94.53
2019-01-13T21:25:37.631Z,92.50
2019-01-13T21:28:06.460Z,93.60
2019-01-13T21:30:35.259Z,91.33
2019-01-13T21:33:04.224Z,90.70
2019-01-13T21:35:34.058Z,85.03
2019-01-13T21:38:02.703Z,86.53
2019-01-13T21:40:31.454Z,103.93
2019-01-13T21:43:00.067Z,95.03
2019-01-13T21:45:28.849Z,99.23
2019-01-13T21:47:57.388Z,90.27
2019-01-13T21:50:26.180Z,83.40
2019-01-13T21:52:54.942Z,84.87
2019-01-13T21:55:23.403Z,85.03
2019-01-13T21:57:51.681Z,85.53
2019-01-13T22:00:22.279Z,76.47
2019-01-13T22:02:52.343Z,74.37
2019-01-13T22:05:21.145Z,77.57
2019-01-13T22:07:50.184Z,81.07
2019-01-13T22:10:19.283Z,82.47
2019-01-13T22:12:47.872Z,80.50
2019-01-13T22:15:17.652Z,78.63
2019-01-13T22:17:46.378Z,77.97
2019-01-13T22:20:16.970Z,72.00
2019-01-13T22:22:45.920Z,73.40
2019-01-13T22:25:15.224Z,70.03
2019-01-13T22:27:44.029Z,76.40
2019-01-13T22:30:18.110Z,73.33
2019-01-13T22:32:46.643Z,70.90
2019-01-13T22:35:15.428Z,71.53
2019-01-13T22:37:43.752Z,72.43
2019-01-13T22:40:14.127Z,76.47
2019-01-13T22:42:42.716Z,85.97
2019-01-13T22:45:13.827Z,94.17
2019-01-13T22:47:42.516Z,93.37
2019-01-13T22:50:12.795Z,93.37
2019-01-13T22:52:41.467Z,91.53
2019-01-13T22:55:10.498Z,92.50
2019-01-13T22:57:38.982Z,88.40
2019-01-13T23:00:32.136Z,90.13
2019-01-13T23:03:00.766Z,85.97
2019-01-13T23:05:29.589Z,90.20
2019-01-13T23:07:58.203Z,84.50
2019-01-13T23:10:26.848Z,85.70
2019-01-13T23:12:55.700Z,84.07
2019-01-13T23:15:24.474Z,86.67
2019-01-13T23:17:52.883Z,89.70
2019-01-13T23:20:21.544Z,79.77
2019-01-13T23:22:50.294Z,86.03
2019-01-13T23:25:19.072Z,89.87
2019-01-13T23:27:47.732Z,81.23
2019-01-13T23:30:16.505Z,90.37
2019-01-13T23:32:45.213Z,89.03
2019-01-13T23:35:14.020Z,90.20
2019-01-13T23:37:42.366Z,85.90
2019-01-13T23:40:10.660Z,86.80
2019-01-13T23:42:39.427Z,85.73
2019-01-13T23:45:07.895Z,88.57
2019-01-13T23:47:36.648Z,88.33
2019-01-13T23:50:05.763Z,87.50
2019-01-13T23:52:34.407Z,82.13
2019-01-13T23:55:03.236Z,82.20
2019-01-13T23:57:31.926Z,79.97
